Time;durP1;ratioP1;P1;durP2;ratioP2;P2;SDS_P1;SDS_P2;PMS_P1;PMS_P2;Temp;Humidity;BMP_temperature;BMP_pressure;BME280_temperature;BME280_humidity;BME280_pressure;Samples;Min_cycle;Max_cycle;Signal;HPM_P1;HPM_P2
2022/08/31 00:05:37;;;;;;;2.10;1.30;;;17.60;99.90;;;;;;5068074;28;20031;-80
2022/08/31 00:08:02;;;;;;;1.40;1.23;;;17.60;99.90;;;;;;5068859;28;20034;-83
2022/08/31 00:10:28;;;;;;;1.75;1.15;;;17.60;99.90;;;;;;5069612;28;20028;-79
2022/08/31 00:12:54;;;;;;;2.75;1.75;;;17.60;99.90;;;;;;5073000;28;20028;-79
2022/08/31 00:15:22;;;;;;;1.48;1.38;;;17.60;99.90;;;;;;5071577;28;20421;-79
2022/08/31 00:17:49;;;;;;;3.17;1.40;;;17.60;99.90;;;;;;5060678;28;20024;-82
2022/08/31 00:20:15;;;;;;;2.95;1.45;;;17.60;99.90;;;;;;5069027;28;20054;-84
2022/08/31 00:22:41;;;;;;;2.67;1.23;;;17.50;99.90;;;;;;5064708;28;20035;-79
2022/08/31 00:25:07;;;;;;;3.28;1.27;;;17.50;99.90;;;;;;5072257;28;20044;-80
2022/08/31 00:27:33;;;;;;;1.30;1.17;;;17.50;99.90;;;;;;5061766;28;20037;-80
2022/08/31 00:29:58;;;;;;;2.15;1.13;;;17.50;99.90;;;;;;5065850;28;20346;-79
2022/08/31 00:32:24;;;;;;;3.35;1.27;;;17.50;99.90;;;;;;5062912;28;20035;-83
2022/08/31 00:34:51;;;;;;;3.05;1.35;;;17.50;99.90;;;;;;5080175;28;20512;-81
2022/08/31 00:37:17;;;;;;;2.35;1.13;;;17.40;99.90;;;;;;5061962;28;20361;-80
2022/08/31 00:39:43;;;;;;;1.90;1.33;;;17.50;99.90;;;;;;5065473;28;20040;-80
2022/08/31 00:42:08;;;;;;;4.53;1.42;;;17.50;99.90;;;;;;5065692;28;20306;-80
2022/08/31 00:44:34;;;;;;;2.65;1.50;;;17.40;99.90;;;;;;5073879;28;20455;-80
2022/08/31 00:46:59;;;;;;;3.75;1.35;;;17.40;99.90;;;;;;5082573;28;20044;-80
2022/08/31 00:49:31;;;;;;;2.20;1.38;;;17.50;99.90;;;;;;5070955;28;20461;-80
2022/08/31 00:52:11;;;;;;;2.28;1.33;;;17.50;99.90;;;;;;5070574;28;20028;-87
2022/08/31 00:54:40;;;;;;;7.13;1.20;;;17.50;99.90;;;;;;5064539;28;20032;-82
2022/08/31 00:57:07;;;;;;;2.92;1.40;;;17.50;99.90;;;;;;5073796;28;20031;-82
2022/08/31 00:59:33;;;;;;;3.17;1.30;;;17.50;99.90;;;;;;5070418;28;20033;-83
2022/08/31 01:01:59;;;;;;;2.97;1.40;;;17.50;99.90;;;;;;5069663;28;20081;-81
2022/08/31 01:04:25;;;;;;;2.05;1.10;;;17.50;99.90;;;;;;5067443;28;20036;-83
2022/08/31 01:06:51;;;;;;;2.22;1.27;;;17.40;99.90;;;;;;5071706;28;20032;-79
2022/08/31 01:09:20;;;;;;;4.88;1.23;;;17.50;99.90;;;;;;5070191;28;20373;-80
2022/08/31 01:11:45;;;;;;;2.33;1.10;;;17.50;99.90;;;;;;5066498;28;20113;-85
2022/08/31 01:14:11;;;;;;;2.22;1.48;;;17.40;99.90;;;;;;5065522;28;20457;-81
2022/08/31 01:16:41;;;;;;;2.10;1.02;;;17.40;99.90;;;;;;5067979;28;20044;-78
2022/08/31 01:19:18;;;;;;;1.35;1.25;;;17.40;99.90;;;;;;5078407;28;20036;-80
2022/08/31 01:22:08;;;;;;;1.90;1.35;;;17.40;99.90;;;;;;5078306;28;20025;-79
2022/08/31 01:24:35;;;;;;;1.73;1.10;;;17.50;99.90;;;;;;5060146;28;20048;-78
2022/08/31 01:27:03;;;;;;;1.60;1.02;;;17.40;99.90;;;;;;5072157;28;20049;-80
2022/08/31 01:29:30;;;;;;;3.33;1.48;;;17.40;99.90;;;;;;5076330;28;20047;-80
2022/08/31 01:31:56;;;;;;;2.15;1.55;;;17.50;99.90;;;;;;5072883;28;20025;-81
2022/08/31 01:34:21;;;;;;;2.45;1.48;;;17.40;99.90;;;;;;5061666;28;20025;-80
2022/08/31 01:36:48;;;;;;;6.07;1.88;;;17.40;99.90;;;;;;5062361;28;20411;-80
2022/08/31 01:39:14;;;;;;;2.17;1.23;;;17.50;99.90;;;;;;5064882;28;20037;-79
2022/08/31 01:41:42;;;;;;;3.33;0.98;;;17.50;99.90;;;;;;5074887;28;20399;-80
2022/08/31 01:44:12;;;;;;;1.52;1.10;;;17.40;99.90;;;;;;5054898;28;20021;-85
2022/08/31 01:46:38;;;;;;;1.30;1.02;;;17.50;99.90;;;;;;5069902;28;20036;-79
2022/08/31 01:49:03;;;;;;;2.05;1.08;;;17.50;99.90;;;;;;5065981;28;20031;-80
2022/08/31 01:51:29;;;;;;;1.85;1.27;;;17.50;99.90;;;;;;5066267;28;20037;-85
2022/08/31 01:53:55;;;;;;;2.88;1.30;;;17.50;99.90;;;;;;5075165;28;20119;-80
2022/08/31 01:56:26;;;;;;;2.03;1.08;;;17.50;99.90;;;;;;5063433;28;20033;-79
2022/08/31 01:58:52;;;;;;;1.42;1.00;;;17.50;99.90;;;;;;5062365;28;20025;-80
2022/08/31 02:01:20;;;;;;;2.05;1.58;;;17.40;99.90;;;;;;5064474;28;20077;-80
2022/08/31 02:03:46;;;;;;;5.45;1.58;;;17.50;99.90;;;;;;5062434;28;20035;-79
2022/08/31 02:06:12;;;;;;;3.90;1.30;;;17.50;99.90;;;;;;5065859;28;20029;-80
2022/08/31 02:08:38;;;;;;;5.28;1.67;;;17.50;99.90;;;;;;5065805;28;20029;-80
2022/08/31 02:11:05;;;;;;;4.97;1.10;;;17.40;99.90;;;;;;5064649;28;20025;-80
2022/08/31 02:13:32;;;;;;;9.57;1.60;;;17.50;99.90;;;;;;5060748;28;20493;-80
2022/08/31 02:15:57;;;;;;;1.63;1.10;;;17.40;99.90;;;;;;5078163;28;20023;-81
2022/08/31 02:18:23;;;;;;;3.72;1.52;;;17.50;99.90;;;;;;5060268;28;20033;-81
2022/08/31 02:20:49;;;;;;;1.27;1.08;;;17.50;99.90;;;;;;5065632;28;20052;-80
2022/08/31 02:23:14;;;;;;;3.47;1.45;;;17.40;99.90;;;;;;5065707;28;20440;-82
2022/08/31 02:25:40;;;;;;;1.50;1.20;;;17.30;99.90;;;;;;5071684;28;20027;-81
2022/08/31 02:28:05;;;;;;;4.07;1.27;;;17.30;99.90;;;;;;5065666;28;20508;-81
2022/08/31 02:30:31;;;;;;;1.50;1.40;;;17.30;99.90;;;;;;5061038;28;20024;-83
2022/08/31 02:32:56;;;;;;;1.58;1.17;;;17.30;99.90;;;;;;5065937;28;20028;-81
2022/08/31 02:35:22;;;;;;;1.65;1.10;;;17.40;99.90;;;;;;5060461;28;20078;-81
2022/08/31 02:37:47;;;;;;;1.73;1.30;;;17.40;99.90;;;;;;5062360;28;20040;-80
2022/08/31 02:40:13;;;;;;;2.30;1.02;;;17.40;99.90;;;;;;5063368;28;20051;-83
2022/08/31 02:42:39;;;;;;;2.10;1.13;;;17.30;99.90;;;;;;5067492;28;20382;-82
2022/08/31 02:45:05;;;;;;;2.10;1.30;;;17.30;99.90;;;;;;5066358;28;20161;-79
2022/08/31 02:47:31;;;;;;;2.53;1.40;;;17.30;99.90;;;;;;5060222;28;20053;-79
2022/08/31 02:49:57;;;;;;;1.70;1.20;;;17.30;99.90;;;;;;5067796;28;20357;-80
2022/08/31 02:52:23;;;;;;;2.45;1.58;;;17.30;99.90;;;;;;5062637;28;20017;-81
2022/08/31 02:54:48;;;;;;;4.35;1.20;;;17.30;99.90;;;;;;5073631;28;20028;-79
2022/08/31 02:57:14;;;;;;;5.25;1.15;;;17.30;99.90;;;;;;5081733;28;20033;-81
2022/08/31 02:59:39;;;;;;;2.95;1.45;;;17.40;99.90;;;;;;5090905;28;20054;-80
2022/08/31 03:02:05;;;;;;;1.73;1.30;;;17.40;99.90;;;;;;5067081;28;20029;-80
2022/08/31 03:04:30;;;;;;;1.33;1.23;;;17.30;99.90;;;;;;5069140;28;20366;-81
2022/08/31 03:06:56;;;;;;;1.95;1.27;;;17.40;99.90;;;;;;5076541;28;20024;-79
2022/08/31 03:09:21;;;;;;;3.28;1.55;;;17.30;99.90;;;;;;5069173;28;20029;-80
2022/08/31 03:11:47;;;;;;;2.40;1.60;;;17.30;99.90;;;;;;5073437;28;20021;-81
2022/08/31 03:14:12;;;;;;;2.70;1.38;;;17.20;99.90;;;;;;5070761;28;20046;-79
2022/08/31 03:16:39;;;;;;;1.90;1.50;;;17.30;99.90;;;;;;5076964;28;20453;-80
2022/08/31 03:19:05;;;;;;;5.10;1.67;;;17.20;99.90;;;;;;5070772;28;20373;-79
2022/08/31 03:21:30;;;;;;;2.05;1.40;;;17.20;99.90;;;;;;5069447;28;20239;-81
2022/08/31 03:23:56;;;;;;;3.35;1.73;;;17.20;99.90;;;;;;5073195;28;20578;-79
2022/08/31 03:26:21;;;;;;;1.48;1.38;;;17.20;99.90;;;;;;5069109;28;20055;-79
2022/08/31 03:28:47;;;;;;;2.22;1.48;;;17.20;99.90;;;;;;5072722;28;20043;-83
2022/08/31 03:31:12;;;;;;;3.22;1.58;;;17.10;99.90;;;;;;5077538;28;20108;-80
2022/08/31 03:33:38;;;;;;;1.85;1.23;;;17.10;99.90;;;;;;5073653;28;20032;-81
2022/08/31 03:36:04;;;;;;;2.13;1.40;;;17.10;99.90;;;;;;5072497;28;20184;-80
2022/08/31 03:38:30;;;;;;;1.98;1.50;;;17.10;99.90;;;;;;5066162;28;20500;-80
2022/08/31 03:40:55;;;;;;;4.32;1.58;;;17.10;99.90;;;;;;5064983;28;20025;-80
2022/08/31 03:43:21;;;;;;;2.97;1.42;;;17.10;99.90;;;;;;5067149;28;20028;-79
2022/08/31 03:45:48;;;;;;;3.30;1.55;;;17.00;99.90;;;;;;5064069;28;20055;-82
2022/08/31 03:48:14;;;;;;;2.75;1.50;;;17.00;99.90;;;;;;5068734;28;20495;-80
2022/08/31 03:50:40;;;;;;;1.63;1.10;;;17.00;99.90;;;;;;5074979;28;20033;-80
2022/08/31 03:53:07;;;;;;;1.90;1.33;;;17.00;99.90;;;;;;5068826;28;20028;-83
2022/08/31 03:55:34;;;;;;;2.42;1.40;;;17.00;99.90;;;;;;5066533;28;20040;-79
2022/08/31 03:58:00;;;;;;;1.50;1.13;;;16.90;99.90;;;;;;5064114;28;20497;-79
2022/08/31 04:00:26;;;;;;;1.33;1.00;;;16.90;99.90;;;;;;5068592;28;20118;-79
2022/08/31 04:02:52;;;;;;;1.20;1.02;;;16.90;99.90;;;;;;5070787;28;20052;-83
2022/08/31 04:05:18;;;;;;;1.73;1.50;;;16.90;99.90;;;;;;5064987;28;20792;-80
2022/08/31 04:07:44;;;;;;;2.72;1.45;;;16.90;99.90;;;;;;5061450;28;20040;-79
2022/08/31 04:10:11;;;;;;;2.15;1.15;;;16.90;99.90;;;;;;5059891;28;20372;-82
2022/08/31 04:12:37;;;;;;;2.30;1.13;;;16.90;99.90;;;;;;5071193;28;20024;-83
2022/08/31 04:15:03;;;;;;;2.08;1.20;;;16.90;99.90;;;;;;5061464;28;20503;-79
2022/08/31 04:17:29;;;;;;;2.42;1.42;;;16.90;99.90;;;;;;5061442;28;20029;-85
2022/08/31 04:19:54;;;;;;;2.85;1.30;;;16.90;99.90;;;;;;5066125;28;20430;-83
2022/08/31 04:22:20;;;;;;;3.75;1.58;;;16.80;99.90;;;;;;5059730;28;20039;-79
2022/08/31 04:24:45;;;;;;;2.92;1.75;;;16.80;99.90;;;;;;5054832;28;20082;-81
2022/08/31 04:27:11;;;;;;;2.55;1.65;;;16.80;99.90;;;;;;5065544;28;20074;-83
2022/08/31 04:29:36;;;;;;;1.48;1.20;;;16.70;99.90;;;;;;5058516;28;20641;-81
2022/08/31 04:32:02;;;;;;;2.95;1.73;;;16.60;99.90;;;;;;5066978;28;20028;-85
2022/08/31 04:34:27;;;;;;;4.53;1.58;;;16.60;99.90;;;;;;5071202;28;20027;-80
2022/08/31 04:36:53;;;;;;;3.58;1.73;;;16.60;99.90;;;;;;5065091;28;20107;-81
2022/08/31 04:39:19;;;;;;;1.58;1.10;;;16.40;99.90;;;;;;5063648;28;20426;-79
2022/08/31 04:41:45;;;;;;;1.88;1.10;;;16.40;99.90;;;;;;5065409;28;20062;-80
2022/08/31 04:44:11;;;;;;;1.83;1.00;;;16.40;99.90;;;;;;5062008;28;20096;-83
2022/08/31 04:46:38;;;;;;;2.65;1.20;;;16.50;99.90;;;;;;5073579;28;20111;-84
2022/08/31 04:49:03;;;;;;;5.70;1.52;;;16.50;99.90;;;;;;5067903;28;20089;-79
2022/08/31 04:51:34;;;;;;;2.05;1.38;;;16.50;99.90;;;;;;5066519;28;20021;-80
2022/08/31 04:54:00;;;;;;;1.67;1.23;;;16.60;99.90;;;;;;5061689;28;20035;-79
2022/08/31 04:56:30;;;;;;;4.68;1.48;;;16.60;99.90;;;;;;5065885;28;20035;-84
2022/08/31 04:59:01;;;;;;;2.58;1.42;;;16.50;99.90;;;;;;5067336;28;20020;-80
2022/08/31 05:01:30;;;;;;;2.30;1.52;;;16.60;99.90;;;;;;5063138;28;20045;-80
2022/08/31 05:03:57;;;;;;;2.35;1.42;;;16.60;99.90;;;;;;5067619;28;20052;-80
2022/08/31 05:06:26;;;;;;;4.28;1.50;;;16.60;99.90;;;;;;5064550;28;20020;-80
2022/08/31 05:09:01;;;;;;;2.38;1.27;;;16.70;99.90;;;;;;5065422;28;20111;-80
2022/08/31 05:11:27;;;;;;;2.50;1.63;;;16.70;99.90;;;;;;5063562;28;20028;-84
2022/08/31 05:13:56;;;;;;;4.03;1.48;;;16.80;99.90;;;;;;5063988;28;20044;-82
2022/08/31 05:16:21;;;;;;;3.22;1.80;;;16.70;99.90;;;;;;5059569;28;20068;-79
2022/08/31 05:18:48;;;;;;;1.80;1.52;;;16.60;99.90;;;;;;5068451;28;20054;-80
2022/08/31 05:21:29;;;;;;;4.32;1.90;;;16.70;99.90;;;;;;5063374;28;20033;-80
2022/08/31 05:24:00;;;;;;;1.80;1.33;;;16.80;99.90;;;;;;5062809;28;20028;-79
2022/08/31 05:26:39;;;;;;;3.97;1.60;;;16.80;99.90;;;;;;5062828;28;20032;-82
2022/08/31 05:29:07;;;;;;;5.93;1.70;;;16.80;99.90;;;;;;5065407;28;20064;-83
2022/08/31 05:31:35;;;;;;;3.15;1.70;;;16.80;99.90;;;;;;5064844;28;20035;-79
2022/08/31 05:34:00;;;;;;;2.60;1.40;;;16.70;99.90;;;;;;5067927;28;20349;-82
2022/08/31 05:36:26;;;;;;;3.42;2.00;;;16.70;99.90;;;;;;5068128;28;20249;-83
2022/08/31 05:38:52;;;;;;;3.20;1.65;;;16.70;99.90;;;;;;5064771;28;20091;-79
2022/08/31 05:41:19;;;;;;;1.52;1.33;;;16.70;99.90;;;;;;5061152;28;20051;-80
2022/08/31 05:43:44;;;;;;;1.60;1.50;;;16.80;99.90;;;;;;5069305;28;20032;-80
2022/08/31 05:46:12;;;;;;;2.47;1.48;;;16.70;99.90;;;;;;5075561;28;20028;-78
2022/08/31 05:48:38;;;;;;;3.05;1.75;;;16.70;99.90;;;;;;5069999;28;20100;-81
2022/08/31 05:51:06;;;;;;;1.98;1.17;;;16.80;99.90;;;;;;5076171;28;20131;-81
2022/08/31 05:53:33;;;;;;;2.70;1.70;;;16.80;99.90;;;;;;5069760;28;20063;-79
2022/08/31 05:56:05;;;;;;;2.60;1.70;;;16.80;99.90;;;;;;5068095;28;20033;-82
2022/08/31 05:58:32;;;;;;;2.78;1.40;;;16.80;99.90;;;;;;5069335;28;20040;-85
2022/08/31 06:00:58;;;;;;;2.63;1.35;;;16.80;99.90;;;;;;5069090;28;20028;-80
2022/08/31 06:03:24;;;;;;;3.17;1.55;;;16.90;99.90;;;;;;5069435;28;20017;-80
2022/08/31 06:05:50;;;;;;;4.70;1.75;;;16.90;99.90;;;;;;5068980;28;20028;-80
2022/08/31 06:08:16;;;;;;;6.40;1.65;;;17.00;99.90;;;;;;5070108;28;20028;-79
2022/08/31 06:10:42;;;;;;;2.75;1.77;;;17.00;99.90;;;;;;5070019;28;20020;-84
2022/08/31 06:13:09;;;;;;;2.05;1.30;;;17.00;99.90;;;;;;5071638;28;20040;-81
2022/08/31 06:15:35;;;;;;;6.18;1.70;;;17.00;99.90;;;;;;5069741;28;20029;-83
2022/08/31 06:18:00;;;;;;;4.57;1.48;;;17.10;99.90;;;;;;5071123;28;20424;-80
2022/08/31 06:20:26;;;;;;;2.42;1.45;;;17.20;99.90;;;;;;5070010;28;20425;-79
2022/08/31 06:22:51;;;;;;;2.13;1.42;;;17.20;99.90;;;;;;5069878;28;20119;-81
2022/08/31 06:25:18;;;;;;;2.08;1.27;;;17.10;99.90;;;;;;5071853;28;20024;-80
2022/08/31 06:27:46;;;;;;;3.42;1.50;;;17.20;99.90;;;;;;5072498;28;20032;-78
2022/08/31 06:30:17;;;;;;;3.90;2.00;;;17.10;99.90;;;;;;5072244;28;20028;-80
2022/08/31 06:32:45;;;;;;;1.83;1.65;;;17.00;99.90;;;;;;5076913;28;20082;-79
2022/08/31 06:35:10;;;;;;;3.58;2.03;;;17.00;99.90;;;;;;5077518;28;20586;-77
2022/08/31 06:37:35;;;;;;;4.43;1.45;;;17.10;99.90;;;;;;5089193;28;20024;-80
2022/08/31 06:40:01;;;;;;;4.13;1.63;;;17.10;99.90;;;;;;5091402;28;20109;-79
2022/08/31 06:42:27;;;;;;;1.83;1.30;;;17.30;99.90;;;;;;5081415;28;20028;-78
2022/08/31 06:44:52;;;;;;;3.72;1.60;;;17.30;99.90;;;;;;5078835;28;20123;-80
2022/08/31 06:47:18;;;;;;;2.10;1.30;;;17.30;99.90;;;;;;5077060;28;20017;-79
2022/08/31 06:49:45;;;;;;;4.88;1.58;;;17.20;99.90;;;;;;5075285;28;20435;-79
2022/08/31 06:52:10;;;;;;;2.22;1.20;;;17.30;99.90;;;;;;5075292;28;20168;-79
2022/08/31 06:54:36;;;;;;;6.07;1.88;;;17.40;99.90;;;;;;5074964;28;20059;-80
2022/08/31 06:57:01;;;;;;;4.20;1.98;;;17.50;99.90;;;;;;5074484;28;20461;-80
2022/08/31 06:59:27;;;;;;;3.70;1.63;;;17.60;99.90;;;;;;5073182;28;20028;-78
2022/08/31 07:01:52;;;;;;;2.90;1.40;;;17.60;99.90;;;;;;5069786;28;20111;-80
2022/08/31 07:04:18;;;;;;;1.88;1.27;;;17.60;99.90;;;;;;5068703;28;20036;-84
2022/08/31 07:06:44;;;;;;;2.28;1.17;;;17.60;99.90;;;;;;5059671;28;20032;-82
2022/08/31 07:09:16;;;;;;;3.83;1.60;;;17.60;99.90;;;;;;5067870;28;20167;-79
2022/08/31 07:11:45;;;;;;;2.88;1.48;;;17.50;99.90;;;;;;5068616;28;20537;-83
2022/08/31 07:14:13;;;;;;;2.15;1.25;;;17.40;99.90;;;;;;5054657;28;20024;-79
2022/08/31 07:16:43;;;;;;;1.75;1.27;;;17.50;99.90;;;;;;5066464;28;20419;-80
2022/08/31 07:19:10;;;;;;;2.75;1.30;;;17.60;99.90;;;;;;5068175;28;20453;-80
2022/08/31 07:21:45;;;;;;;1.92;1.30;;;17.70;99.90;;;;;;5062574;28;20016;-79
2022/08/31 07:24:13;;;;;;;2.80;1.33;;;17.80;99.90;;;;;;5057831;28;20032;-82
2022/08/31 07:26:45;;;;;;;2.25;1.10;;;17.80;99.90;;;;;;5063669;28;20068;-84
2022/08/31 07:29:13;;;;;;;2.03;1.20;;;17.90;99.90;;;;;;5068496;28;20821;-86
2022/08/31 07:31:42;;;;;;;4.47;1.10;;;18.00;99.90;;;;;;5076878;28;20028;-78
2022/08/31 07:34:09;;;;;;;1.60;0.90;;;18.20;99.90;;;;;;5059963;28;20028;-79
2022/08/31 07:42:07;;;;;;;1.88;1.20;;;18.40;99.90;;;;;;5047500;28;20051;-80
2022/08/31 07:42:10;;;;;;;3.75;1.10;;;18.70;99.80;;;;;;5048835;28;20032;-79
2022/08/31 07:44:35;;;;;;;5.45;1.10;;;18.90;98.90;;;;;;5056154;28;20017;-79
2022/08/31 07:47:02;;;;;;;6.30;1.10;;;18.90;98.60;;;;;;5060020;28;20385;-81
2022/08/31 07:49:29;;;;;;;3.90;0.95;;;18.80;98.60;;;;;;5066791;28;20453;-78
2022/08/31 07:51:55;;;;;;;2.17;1.27;;;18.80;98.50;;;;;;5066773;28;20028;-79
2022/08/31 07:54:28;;;;;;;1.27;0.85;;;18.80;98.60;;;;;;5066346;28;20036;-82
2022/08/31 07:57:02;;;;;;;1.55;1.17;;;18.70;98.80;;;;;;5067973;28;20028;-86
2022/08/31 07:59:28;;;;;;;5.82;1.02;;;18.80;99.10;;;;;;5053879;28;20113;-80
2022/08/31 08:01:55;;;;;;;1.95;1.10;;;18.90;98.60;;;;;;5061662;28;20078;-81
2022/08/31 08:04:24;;;;;;;1.85;1.13;;;18.90;98.70;;;;;;5070341;28;20445;-80
2022/08/31 08:06:55;;;;;;;2.13;1.17;;;19.00;98.50;;;;;;5056650;28;20021;-80
2022/08/31 08:09:22;;;;;;;2.85;1.20;;;19.00;98.50;;;;;;5051014;28;20108;-83
2022/08/31 08:11:56;;;;;;;4.80;1.10;;;18.90;98.30;;;;;;5053053;28;20025;-81
2022/08/31 08:14:23;;;;;;;2.35;1.00;;;18.90;98.60;;;;;;5059253;28;20016;-82
2022/08/31 08:16:49;;;;;;;1.42;0.88;;;18.90;99.00;;;;;;5069881;28;20089;-81
2022/08/31 08:19:15;;;;;;;1.58;0.90;;;19.10;99.00;;;;;;5070280;28;20021;-80
2022/08/31 08:21:42;;;;;;;1.63;1.05;;;19.20;98.50;;;;;;5070185;28;20027;-85
2022/08/31 08:24:08;;;;;;;4.10;1.20;;;19.20;99.00;;;;;;5070659;28;20063;-81
2022/08/31 08:26:34;;;;;;;1.58;1.10;;;19.30;98.80;;;;;;5070352;28;20027;-82
2022/08/31 08:28:59;;;;;;;3.03;1.02;;;19.50;98.60;;;;;;5072243;28;20040;-84
2022/08/31 08:31:27;;;;;;;9.70;1.50;;;19.60;97.60;;;;;;5085261;28;20070;-80
2022/08/31 08:33:53;;;;;;;2.35;1.13;;;19.70;97.60;;;;;;5067882;28;20017;-84
2022/08/31 08:36:19;;;;;;;2.38;1.00;;;19.80;97.10;;;;;;5068782;28;20115;-84
2022/08/31 08:38:47;;;;;;;2.58;1.00;;;19.90;97.90;;;;;;5055304;28;20099;-82
2022/08/31 08:41:22;;;;;;;4.40;1.17;;;20.00;96.90;;;;;;5068682;28;20028;-78
2022/08/31 08:43:50;;;;;;;3.80;0.90;;;20.20;96.10;;;;;;5070170;28;20017;-79
2022/08/31 08:46:19;;;;;;;3.05;1.00;;;20.30;96.60;;;;;;5069000;28;20020;-84
2022/08/31 08:48:46;;;;;;;1.67;1.40;;;20.60;96.30;;;;;;5070273;28;20653;-84
2022/08/31 08:51:16;;;;;;;6.22;1.30;;;20.70;95.60;;;;;;5068836;28;20020;-80
2022/08/31 08:53:45;;;;;;;5.28;1.00;;;20.80;95.70;;;;;;5070421;28;20032;-82
2022/08/31 08:56:12;;;;;;;2.30;0.90;;;21.00;95.60;;;;;;5068807;28;20029;-82
2022/08/31 08:58:44;;;;;;;3.40;1.20;;;21.10;95.20;;;;;;5070011;28;20818;-80
2022/08/31 09:01:14;;;;;;;2.53;0.98;;;21.30;96.30;;;;;;5069708;28;20066;-80
2022/08/31 09:03:48;;;;;;;7.03;1.27;;;21.50;94.50;;;;;;5068397;28;20028;-82
2022/08/31 09:06:45;;;;;;;2.08;0.80;;;21.50;94.20;;;;;;5069131;28;20058;-83
2022/08/31 09:09:39;;;;;;;5.18;1.00;;;21.60;94.40;;;;;;5069029;28;20110;-80
2022/08/31 09:12:29;;;;;;;1.50;0.70;;;21.70;93.80;;;;;;5042362;28;20033;-81
2022/08/31 09:15:35;;;;;;;8.23;0.90;;;21.90;93.30;;;;;;5069216;28;20271;-83
2022/08/31 09:18:19;;;;;;;4.45;1.10;;;21.80;93.20;;;;;;5069007;28;20032;-80
2022/08/31 09:21:01;;;;;;;2.90;0.77;;;21.70;93.00;;;;;;5069618;28;20017;-81
2022/08/31 09:23:29;;;;;;;3.67;0.88;;;21.80;93.30;;;;;;5056983;28;20028;-81
2022/08/31 09:25:57;;;;;;;1.42;0.77;;;21.80;92.80;;;;;;5059730;28;20029;-80
2022/08/31 09:28:44;;;;;;;2.17;1.05;;;21.60;92.90;;;;;;5060565;28;20102;-84
2022/08/31 09:31:34;;;;;;;3.63;0.90;;;21.50;93.50;;;;;;5069146;28;20149;-81
2022/08/31 09:34:00;;;;;;;6.05;1.65;;;21.60;92.90;;;;;;5068125;28;20112;-79
2022/08/31 09:36:39;;;;;;;2.17;0.68;;;21.60;93.60;;;;;;5067641;28;20111;-79
2022/08/31 09:39:28;;;;;;;2.70;0.77;;;21.60;93.20;;;;;;5069663;28;20032;-78
2022/08/31 09:41:59;;;;;;;1.45;0.80;;;21.80;92.60;;;;;;5068718;28;20093;-79
2022/08/31 09:44:42;;;;;;;4.35;0.70;;;22.00;92.30;;;;;;5067933;28;20048;-85
2022/08/31 09:47:54;;;;;;;5.32;0.73;;;22.20;92.90;;;;;;5068326;28;20040;-80
2022/08/31 09:50:36;;;;;;;2.65;0.80;;;22.20;92.10;;;;;;5069323;28;20039;-79
2022/08/31 09:56:14;;;;;;;1.15;0.60;;;22.20;92.70;;;;;;5068607;28;20050;-80
2022/08/31 09:58:43;;;;;;;1.92;0.57;;;22.40;92.20;;;;;;5067478;28;20101;-84
2022/08/31 10:01:34;;;;;;;1.48;0.57;;;22.50;92.80;;;;;;5067390;28;20044;-80
2022/08/31 10:04:22;;;;;;;1.60;0.88;;;22.70;92.50;;;;;;5068990;28;20087;-83
2022/08/31 10:07:10;;;;;;;3.25;0.98;;;22.70;91.90;;;;;;5068821;28;20016;-79
2022/08/31 10:09:50;;;;;;;1.48;0.60;;;22.80;92.30;;;;;;5070186;28;20013;-83
2022/08/31 10:12:42;;;;;;;1.38;0.70;;;22.70;91.40;;;;;;5072378;28;20510;-80
2022/08/31 10:15:23;;;;;;;8.40;0.90;;;22.80;91.10;;;;;;5086152;28;20070;-78
2022/08/31 10:17:59;;;;;;;1.38;0.57;;;22.80;91.60;;;;;;5091036;28;20062;-80
2022/08/31 10:20:38;;;;;;;1.48;0.55;;;22.90;90.50;;;;;;5079879;28;20012;-80
2022/08/31 10:23:26;;;;;;;2.10;0.55;;;22.70;92.20;;;;;;5048877;28;20064;-80
2022/08/31 10:26:01;;;;;;;1.92;0.88;;;22.90;91.30;;;;;;5066162;28;20046;-80
2022/08/31 10:28:36;;;;;;;2.45;0.60;;;22.90;90.60;;;;;;5048092;28;20457;-80
2022/08/31 10:31:08;;;;;;;2.05;0.60;;;22.70;90.60;;;;;;5057310;28;20473;-80
2022/08/31 10:36:35;;;;;;;4.45;0.70;;;22.40;91.30;;;;;;5061616;28;20043;-81
2022/08/31 10:39:02;;;;;;;1.48;0.70;;;22.50;92.20;;;;;;5066593;28;20027;-82
2022/08/31 10:41:34;;;;;;;1.45;0.70;;;22.70;92.10;;;;;;5056882;28;20036;-80
2022/08/31 10:44:22;;;;;;;1.40;0.60;;;22.90;91.30;;;;;;5057492;28;20025;-79
2022/08/31 10:46:53;;;;;;;2.25;0.85;;;22.90;90.90;;;;;;5066289;28;20131;-79
2022/08/31 10:49:20;;;;;;;2.03;0.77;;;23.00;91.10;;;;;;5067253;28;20028;-79
2022/08/31 10:52:02;;;;;;;1.50;0.75;;;23.00;90.60;;;;;;5067160;28;20379;-80
2022/08/31 10:54:59;;;;;;;1.52;0.68;;;23.00;91.50;;;;;;5066680;28;20020;-80
2022/08/31 10:57:41;;;;;;;2.22;0.85;;;23.20;90.80;;;;;;5067351;28;20104;-81
2022/08/31 11:00:40;;;;;;;3.22;1.05;;;23.30;90.20;;;;;;5065144;28;20032;-80
2022/08/31 11:03:28;;;;;;;1.20;0.63;;;23.50;89.10;;;;;;5062179;28;20033;-80
2022/08/31 11:05:57;;;;;;;1.45;0.70;;;23.60;89.00;;;;;;5065158;28;20024;-80
2022/08/31 11:08:28;;;;;;;1.17;0.68;;;23.70;90.00;;;;;;5066939;28;20036;-81
2022/08/31 11:10:56;;;;;;;2.13;0.70;;;23.90;88.40;;;;;;5075904;28;20029;-81
2022/08/31 11:14:13;;;;;;;1.10;0.70;;;24.20;88.50;;;;;;5067341;28;20021;-79
2022/08/31 11:17:05;;;;;;;2.42;0.77;;;24.50;88.30;;;;;;5058361;28;20044;-80
2022/08/31 11:20:02;;;;;;;1.17;0.60;;;24.80;88.10;;;;;;5066615;28;20043;-79
2022/08/31 11:22:36;;;;;;;3.15;0.70;;;24.90;85.90;;;;;;5066563;28;20033;-80
2022/08/31 11:25:13;;;;;;;0.90;0.70;;;25.00;85.20;;;;;;5066963;28;20031;-80
2022/08/31 11:27:50;;;;;;;1.55;0.60;;;25.10;85.90;;;;;;5067355;28;20032;-80
2022/08/31 11:30:25;;;;;;;1.92;0.68;;;25.30;85.50;;;;;;5066990;28;20479;-79
2022/08/31 11:33:05;;;;;;;1.58;0.75;;;25.40;85.30;;;;;;5066116;28;20021;-78
2022/08/31 11:39:02;;;;;;;1.20;0.68;;;25.20;85.60;;;;;;5070694;28;20028;-82
2022/08/31 11:41:33;;;;;;;1.83;0.65;;;25.20;85.80;;;;;;4994361;28;20045;-79
2022/08/31 11:44:00;;;;;;;0.52;0.32;;;25.20;86.10;;;;;;5060293;28;20033;-80
2022/08/31 11:46:25;;;;;;;1.48;0.63;;;25.20;85.40;;;;;;5070750;28;20027;-79
2022/08/31 11:48:52;;;;;;;2.70;0.88;;;25.20;84.90;;;;;;5069085;28;20055;-79
2022/08/31 11:51:39;;;;;;;1.10;0.55;;;25.10;84.40;;;;;;5069124;28;20032;-79
2022/08/31 11:54:11;;;;;;;1.40;0.55;;;24.90;84.70;;;;;;5070142;28;20028;-79
2022/08/31 11:56:46;;;;;;;0.70;0.50;;;24.90;85.40;;;;;;5071033;28;20048;-80
2022/08/31 11:59:39;;;;;;;1.73;0.52;;;24.80;85.30;;;;;;5071818;28;20274;-80
2022/08/31 12:02:22;;;;;;;1.63;0.65;;;24.70;84.50;;;;;;5066897;28;20028;-81
2022/08/31 12:04:50;;;;;;;2.33;0.60;;;24.70;84.40;;;;;;5071711;28;20024;-79
2022/08/31 12:07:34;;;;;;;7.00;0.70;;;24.70;85.10;;;;;;5071133;28;20468;-79
2022/08/31 12:10:06;;;;;;;0.98;0.85;;;24.80;83.50;;;;;;5073937;28;20028;-81
2022/08/31 12:13:17;;;;;;;2.13;0.90;;;24.80;83.70;;;;;;5072686;28;20020;-80
2022/08/31 12:16:03;;;;;;;2.05;0.80;;;24.70;83.10;;;;;;5070101;28;20029;-81
2022/08/31 12:18:50;;;;;;;3.47;0.60;;;24.70;84.20;;;;;;5064272;28;20032;-83
2022/08/31 12:25:07;;;;;;;1.50;0.82;;;24.60;85.10;;;;;;5072707;28;20081;-79
2022/08/31 12:28:04;;;;;;;1.33;0.63;;;24.50;85.00;;;;;;5071580;28;20064;-81
2022/08/31 12:30:29;;;;;;;3.28;0.57;;;24.40;84.30;;;;;;5070809;28;20388;-81
2022/08/31 12:33:15;;;;;;;0.77;0.43;;;24.30;84.40;;;;;;5070797;28;20489;-79
2022/08/31 12:35:41;;;;;;;0.80;0.63;;;24.20;83.40;;;;;;5069741;28;20028;-80
2022/08/31 12:38:17;;;;;;;3.08;0.60;;;23.80;85.20;;;;;;5057484;28;20025;-79
2022/08/31 12:40:49;;;;;;;1.00;0.50;;;23.70;86.50;;;;;;5068450;28;20555;-81
2022/08/31 12:43:24;;;;;;;3.25;0.60;;;23.70;85.30;;;;;;5070342;28;20017;-80
2022/08/31 12:46:31;;;;;;;1.55;0.60;;;23.70;85.50;;;;;;5069467;28;20059;-82
2022/08/31 12:49:03;;;;;;;0.55;0.40;;;23.70;84.00;;;;;;5010818;28;20029;-81
2022/08/31 12:52:00;;;;;;;3.35;0.40;;;23.70;82.80;;;;;;5063773;28;20033;-80
2022/08/31 12:54:46;;;;;;;1.00;0.40;;;23.60;83.70;;;;;;5074505;28;20028;-80
2022/08/31 12:57:42;;;;;;;3.15;0.50;;;23.40;84.30;;;;;;5054100;28;20325;-83
2022/08/31 13:00:27;;;;;;;1.05;0.55;;;23.30;84.90;;;;;;5072957;28;20123;-80
2022/08/31 13:02:57;;;;;;;1.90;0.50;;;23.20;84.60;;;;;;5075062;28;20078;-80
2022/08/31 13:05:30;;;;;;;2.47;0.60;;;23.30;83.70;;;;;;5078386;28;20021;-79
2022/08/31 13:07:56;;;;;;;4.55;0.50;;;23.50;85.20;;;;;;5072914;28;20612;-81
2022/08/31 13:10:32;;;;;;;1.00;0.55;;;23.60;82.40;;;;;;5070240;28;20369;-79
2022/08/31 13:13:04;;;;;;;0.77;0.40;;;23.70;83.60;;;;;;5070124;28;20013;-80
2022/08/31 13:15:39;;;;;;;0.70;0.40;;;23.80;82.50;;;;;;5071078;28;20029;-80
2022/08/31 13:18:21;;;;;;;0.50;0.40;;;23.80;81.90;;;;;;5070717;28;20078;-80
2022/08/31 13:20:51;;;;;;;5.03;0.50;;;23.70;82.30;;;;;;5059174;28;20346;-81
2022/08/31 13:23:29;;;;;;;3.70;0.50;;;23.90;82.80;;;;;;5069458;28;20037;-79
2022/08/31 13:26:13;;;;;;;1.30;0.57;;;23.90;82.30;;;;;;5069204;28;20372;-85
2022/08/31 13:28:40;;;;;;;3.33;0.40;;;24.00;82.90;;;;;;5061243;28;20033;-79